createdAt,value
2022-11-25T00:04:44.125Z,68.07
2022-11-25T00:09:45.702Z,68.04
2022-11-25T00:14:47.284Z,67.78
2022-11-25T00:19:49.083Z,67.69
2022-11-25T00:24:50.688Z,67.59
2022-11-25T00:29:52.285Z,67.68
2022-11-25T00:34:53.936Z,68.06
2022-11-25T00:39:55.519Z,68.10
2022-11-25T00:44:57.102Z,67.91
2022-11-25T00:49:58.684Z,67.69
2022-11-25T00:55:00.275Z,67.75
2022-11-25T01:00:01.906Z,68.06
2022-11-25T01:05:03.796Z,68.10
2022-11-25T01:10:06.036Z,68.01
2022-11-25T01:15:08.411Z,67.91
2022-11-25T01:20:10.559Z,68.06
2022-11-25T01:25:12.157Z,67.77
2022-11-25T01:30:14.593Z,68.32
2022-11-25T01:35:16.273Z,68.01
2022-11-25T01:40:17.901Z,68.29
2022-11-25T01:45:24.532Z,68.37
2022-11-25T01:50:29.647Z,68.15
2022-11-25T01:55:34.566Z,68.21
2022-11-25T02:00:37.814Z,68.07
2022-11-25T02:05:59.113Z,68.25
2022-11-25T02:11:04.665Z,68.11
2022-11-25T02:16:06.489Z,68.16
2022-11-25T02:21:09.182Z,68.08
2022-11-25T02:26:11.039Z,67.73
2022-11-25T02:31:12.898Z,67.76
2022-11-25T02:36:17.629Z,67.86
2022-11-25T02:41:48.554Z,67.88
2022-11-25T02:46:50.364Z,67.53
2022-11-25T02:51:52.174Z,67.39
2022-11-25T02:56:53.761Z,67.11
2022-11-25T03:01:55.640Z,67.02
2022-11-25T03:06:57.338Z,67.27
2022-11-25T03:12:17.856Z,67.22
2022-11-25T03:17:19.426Z,67.18
2022-11-25T03:22:21.005Z,67.15
2022-11-25T03:27:22.600Z,66.99
2022-11-25T03:32:24.213Z,66.82
2022-11-25T03:37:26.043Z,66.94
2022-11-25T03:42:27.697Z,66.71
2022-11-25T03:47:29.338Z,67.06
2022-11-25T03:52:30.986Z,66.91
2022-11-25T03:57:33.350Z,66.98
2022-11-25T04:02:35.013Z,66.90
2022-11-25T04:07:36.689Z,66.73
2022-11-25T04:12:47.489Z,66.69
2022-11-25T04:17:49.098Z,66.57
2022-11-25T04:22:50.659Z,66.46
2022-11-25T04:27:52.415Z,66.50
2022-11-25T04:32:54.042Z,66.76
2022-11-25T04:37:55.616Z,66.87
2022-11-25T04:43:03.433Z,66.86
2022-11-25T04:48:07.719Z,66.71
2022-11-25T04:53:09.523Z,66.51
2022-11-25T04:58:11.325Z,66.53
2022-11-25T05:03:12.915Z,67.04
2022-11-25T05:08:14.514Z,67.32
2022-11-25T05:13:16.111Z,67.28
2022-11-25T05:18:17.904Z,67.37
2022-11-25T05:23:19.502Z,67.34
2022-11-25T05:28:21.185Z,67.39
2022-11-25T05:33:23.045Z,67.58
2022-11-25T05:38:25.288Z,67.75
2022-11-25T05:43:26.884Z,67.47
2022-11-25T05:48:28.464Z,68.02
2022-11-25T05:53:30.592Z,68.04
2022-11-25T05:58:33.167Z,68.17
2022-11-25T06:03:35.645Z,68.34
2022-11-25T06:08:38.626Z,68.34
2022-11-25T06:13:41.863Z,68.20
2022-11-25T06:18:44.008Z,67.88
2022-11-25T06:23:46.218Z,67.95
2022-11-25T06:28:48.062Z,68.03
2022-11-25T06:33:52.012Z,67.92
2022-11-25T06:38:54.907Z,67.80
2022-11-25T06:43:56.506Z,67.62
2022-11-25T06:49:00.482Z,67.58
2022-11-25T06:54:02.064Z,67.48
2022-11-25T06:59:04.172Z,67.54
2022-11-25T07:04:06.028Z,67.69
2022-11-25T07:09:07.729Z,67.31
2022-11-25T07:14:14.417Z,67.47
2022-11-25T07:19:18.128Z,67.48
2022-11-25T07:24:19.733Z,67.42
2022-11-25T07:29:54.521Z,67.27
2022-11-25T07:34:43.062Z,67.47
2022-11-25T07:39:44.629Z,67.39
2022-11-25T07:44:46.396Z,67.38
2022-11-25T07:49:48.342Z,67.56
2022-11-25T07:54:50.078Z,67.47
2022-11-25T07:59:51.665Z,67.41
2022-11-25T08:04:53.407Z,67.44
2022-11-25T08:09:54.996Z,67.32
2022-11-25T08:14:56.582Z,67.27
2022-11-25T08:19:58.207Z,67.38
2022-11-25T08:25:00.374Z,67.38
2022-11-25T08:30:02.186Z,67.38
2022-11-25T08:35:04.075Z,67.28
2022-11-25T08:40:07.399Z,67.13
2022-11-25T08:45:11.514Z,67.09
2022-11-25T08:50:15.197Z,67.07
2022-11-25T08:55:16.847Z,67.21
2022-11-25T09:00:18.729Z,67.11
2022-11-25T09:05:20.341Z,67.12
2022-11-25T09:10:22.035Z,67.34
2022-11-25T09:15:24.077Z,67.41
2022-11-25T09:20:25.770Z,67.92
2022-11-25T09:25:27.659Z,67.36
2022-11-25T09:30:29.681Z,66.96
2022-11-25T09:35:31.302Z,66.70
2022-11-25T09:40:48.254Z,66.98
2022-11-25T09:46:25.993Z,66.56
2022-11-25T09:51:36.060Z,66.60
2022-11-25T09:56:49.105Z,66.32
2022-11-25T10:02:03.113Z,67.55
2022-11-25T10:07:13.668Z,67.46
2022-11-25T10:12:32.481Z,67.72
2022-11-25T10:17:45.975Z,67.40
2022-11-25T10:22:55.110Z,67.42
2022-11-25T10:27:56.923Z,67.31
2022-11-25T10:33:15.090Z,67.64
2022-11-25T10:38:43.440Z,67.98
2022-11-25T10:43:47.924Z,67.86
2022-11-25T10:49:12.947Z,68.11
2022-11-25T10:54:27.910Z,67.86
2022-11-25T10:59:40.994Z,67.84
2022-11-25T11:05:08.210Z,67.70
2022-11-25T11:10:18.886Z,67.53
2022-11-25T11:15:20.453Z,67.69
2022-11-25T11:20:31.950Z,67.08
2022-11-25T11:25:36.308Z,66.72
2022-11-25T11:30:37.913Z,66.48
2022-11-25T11:35:53.495Z,65.85
2022-11-25T11:41:15.641Z,65.35
2022-11-25T11:46:23.295Z,64.80
2022-11-25T11:51:50.406Z,63.50
2022-11-25T11:57:00.218Z,62.99
2022-11-25T12:02:24.282Z,62.89
2022-11-25T12:08:00.778Z,62.26
2022-11-25T12:13:24.370Z,63.00
2022-11-25T12:18:57.750Z,62.62
2022-11-25T12:24:07.009Z,63.14
2022-11-25T12:29:40.315Z,63.35
2022-11-25T12:34:48.786Z,62.83
2022-11-25T12:40:12.868Z,61.13
2022-11-25T12:45:14.379Z,62.16
2022-11-25T12:50:43.806Z,61.71
2022-11-25T12:55:45.583Z,61.19
2022-11-25T13:01:02.104Z,60.48
2022-11-25T13:06:16.784Z,60.30
2022-11-25T13:11:37.011Z,59.69
2022-11-25T13:16:40.609Z,61.00
2022-11-25T13:22:18.031Z,59.73
2022-11-25T13:27:40.695Z,60.18
2022-11-25T13:32:42.917Z,60.14
2022-11-25T13:37:44.510Z,60.49
2022-11-25T13:42:46.164Z,59.92
2022-11-25T13:47:49.493Z,60.41
2022-11-25T13:53:00.413Z,59.21
2022-11-25T13:58:04.909Z,58.74
2022-11-25T14:03:18.759Z,57.47
2022-11-25T14:08:32.339Z,56.93
2022-11-25T14:13:36.507Z,57.51
2022-11-25T14:19:50.069Z,56.16
2022-11-25T14:24:38.931Z,55.37
2022-11-25T14:29:52.004Z,55.68
2022-11-25T14:35:08.308Z,55.03
2022-11-25T14:40:21.782Z,55.51
2022-11-25T14:45:33.563Z,57.75
2022-11-25T14:50:35.680Z,58.58
2022-11-25T14:55:38.060Z,59.75
2022-11-25T15:01:00.027Z,60.54
2022-11-25T15:06:05.363Z,61.29
2022-11-25T15:11:19.393Z,61.91
2022-11-25T15:16:25.285Z,61.99
2022-11-25T15:21:34.015Z,62.59
2022-11-25T15:26:36.419Z,62.84
2022-11-25T15:31:39.859Z,63.23
2022-11-25T15:36:41.693Z,63.56
2022-11-25T15:42:26.143Z,63.36
2022-11-25T15:47:30.172Z,63.14
2022-11-25T15:52:41.183Z,63.78
2022-11-25T15:57:42.715Z,64.29
2022-11-25T16:02:44.273Z,64.36
2022-11-25T16:07:52.213Z,64.39
2022-11-25T16:13:22.920Z,63.83
2022-11-25T16:18:47.893Z,64.00
2022-11-25T16:24:09.430Z,64.08
2022-11-25T16:29:17.334Z,64.38
2022-11-25T16:34:21.251Z,64.67
2022-11-25T16:39:22.924Z,64.72
2022-11-25T16:44:27.218Z,65.31
2022-11-25T16:49:30.853Z,65.54
2022-11-25T16:54:33.888Z,65.78
2022-11-25T16:59:39.668Z,65.86
2022-11-25T17:04:41.629Z,65.95
2022-11-25T17:09:44.356Z,65.79
2022-11-25T17:14:48.086Z,66.18
2022-11-25T17:19:50.060Z,66.30
2022-11-25T17:24:52.198Z,66.36
2022-11-25T17:29:55.198Z,66.37
2022-11-25T17:34:56.856Z,66.54
2022-11-25T17:39:59.938Z,66.46
2022-11-25T17:45:01.620Z,66.64
2022-11-25T17:50:13.408Z,66.84
2022-11-25T17:55:19.831Z,66.63
2022-11-25T18:00:22.834Z,66.44
2022-11-25T18:05:26.837Z,66.35
2022-11-25T18:10:29.391Z,66.53
2022-11-25T18:15:34.102Z,66.71
2022-11-25T18:20:35.735Z,67.01
2022-11-25T18:25:39.774Z,66.63
2022-11-25T18:30:41.462Z,66.57
2022-11-25T18:35:44.523Z,66.87
2022-11-25T18:40:51.885Z,67.04
2022-11-25T18:45:55.785Z,67.20
2022-11-25T18:50:57.508Z,67.08
2022-11-25T18:55:59.807Z,67.37
2022-11-25T19:01:04.305Z,68.27
2022-11-25T19:06:06.407Z,68.63
2022-11-25T19:11:33.664Z,68.79
2022-11-25T19:16:36.343Z,68.55
2022-11-25T19:21:38.176Z,68.46
2022-11-25T19:26:44.335Z,68.58
2022-11-25T19:31:49.498Z,68.46
2022-11-25T19:36:51.461Z,68.66
2022-11-25T19:41:54.795Z,68.88
2022-11-25T19:47:14.793Z,68.67
2022-11-25T19:52:23.110Z,68.63
2022-11-25T19:57:25.494Z,68.56
2022-11-25T20:02:27.111Z,68.72
2022-11-25T20:07:31.070Z,68.67
2022-11-25T20:12:33.258Z,68.95
2022-11-25T20:17:37.493Z,68.93
2022-11-25T20:22:44.331Z,69.10
2022-11-25T20:27:46.061Z,70.27
2022-11-25T20:32:48.308Z,70.72
2022-11-25T20:37:58.157Z,70.60
2022-11-25T20:43:00.391Z,70.44
2022-11-25T20:48:02.582Z,69.46
2022-11-25T20:53:04.791Z,69.39
2022-11-25T20:58:24.600Z,70.77
2022-11-25T21:03:26.928Z,70.63
2022-11-25T21:08:30.391Z,70.32
2022-11-25T21:13:32.003Z,70.30
2022-11-25T21:18:34.345Z,70.02
2022-11-25T21:23:37.870Z,70.06
2022-11-25T21:28:42.431Z,70.33
2022-11-25T21:33:47.654Z,70.58
2022-11-25T21:38:52.867Z,70.61
2022-11-25T21:43:54.585Z,70.91
2022-11-25T21:48:56.196Z,70.26
2022-11-25T21:53:57.830Z,70.56
2022-11-25T21:59:01.447Z,70.19
2022-11-25T22:04:03.172Z,70.25
2022-11-25T22:09:04.769Z,70.23
2022-11-25T22:14:19.943Z,70.36
2022-11-25T22:19:25.013Z,70.27
2022-11-25T22:24:26.604Z,70.21
2022-11-25T22:29:34.941Z,70.47
2022-11-25T22:34:36.903Z,70.46
2022-11-25T22:39:38.670Z,70.46
2022-11-25T22:44:45.298Z,70.37
2022-11-25T22:49:47.853Z,70.19
2022-11-25T22:54:49.708Z,70.35
2022-11-25T22:59:51.348Z,70.21
2022-11-25T23:04:55.093Z,69.97
2022-11-25T23:09:56.921Z,70.10
2022-11-25T23:14:58.730Z,70.72
2022-11-25T23:20:00.360Z,71.11
2022-11-25T23:25:02.302Z,70.78
2022-11-25T23:30:04.159Z,70.48
2022-11-25T23:35:06.326Z,70.50
2022-11-25T23:40:17.738Z,70.45
2022-11-25T23:45:22.405Z,70.16
2022-11-25T23:50:28.891Z,70.14
2022-11-25T23:55:34.809Z,69.93
